sensor_id;sensor_type;location;lat;lon;timestamp;P1;durP1;ratioP1;P2;durP2;ratioP2
24635;SDS011;12772;49.794;10.024;2024-01-15T00:02:57;39.50;;;18.10;;
24635;SDS011;12772;49.794;10.024;2024-01-15T00:06:59;39.50;;;18.73;;
24635;SDS011;12772;49.794;10.024;2024-01-15T00:11:00;36.80;;;17.20;;
24635;SDS011;12772;49.794;10.024;2024-01-15T00:15:03;38.10;;;18.13;;
24635;SDS011;12772;49.794;10.024;2024-01-15T00:19:05;39.90;;;17.70;;
24635;SDS011;12772;49.794;10.024;2024-01-15T00:23:07;35.50;;;17.10;;
24635;SDS011;12772;49.794;10.024;2024-01-15T00:27:09;41.80;;;18.47;;
24635;SDS011;12772;49.794;10.024;2024-01-15T00:31:11;37.63;;;17.57;;
24635;SDS011;12772;49.794;10.024;2024-01-15T00:35:13;37.07;;;17.27;;
24635;SDS011;12772;49.794;10.024;2024-01-15T00:39:15;33.37;;;16.13;;
24635;SDS011;12772;49.794;10.024;2024-01-15T00:43:18;28.87;;;15.17;;
24635;SDS011;12772;49.794;10.024;2024-01-15T00:47:20;34.60;;;18.27;;
24635;SDS011;12772;49.794;10.024;2024-01-15T00:51:23;32.67;;;16.70;;
24635;SDS011;12772;49.794;10.024;2024-01-15T00:55:25;35.43;;;17.40;;
24635;SDS011;12772;49.794;10.024;2024-01-15T00:59:27;39.57;;;18.10;;
24635;SDS011;12772;49.794;10.024;2024-01-15T01:03:29;33.30;;;17.60;;
24635;SDS011;12772;49.794;10.024;2024-01-15T01:07:31;34.30;;;17.53;;
24635;SDS011;12772;49.794;10.024;2024-01-15T01:11:33;38.10;;;18.77;;
24635;SDS011;12772;49.794;10.024;2024-01-15T01:15:35;39.43;;;18.20;;
24635;SDS011;12772;49.794;10.024;2024-01-15T01:19:37;41.23;;;18.47;;
24635;SDS011;12772;49.794;10.024;2024-01-15T01:23:39;36.03;;;17.70;;
24635;SDS011;12772;49.794;10.024;2024-01-15T01:27:41;31.30;;;17.67;;
24635;SDS011;12772;49.794;10.024;2024-01-15T01:31:46;36.83;;;18.17;;
24635;SDS011;12772;49.794;10.024;2024-01-15T01:35:48;30.33;;;16.63;;
24635;SDS011;12772;49.794;10.024;2024-01-15T01:39:50;31.40;;;15.47;;
24635;SDS011;12772;49.794;10.024;2024-01-15T01:43:52;30.90;;;15.60;;
24635;SDS011;12772;49.794;10.024;2024-01-15T01:47:54;32.40;;;17.03;;
24635;SDS011;12772;49.794;10.024;2024-01-15T01:51:56;30.23;;;15.73;;
24635;SDS011;12772;49.794;10.024;2024-01-15T01:55:59;33.33;;;16.67;;
24635;SDS011;12772;49.794;10.024;2024-01-15T02:00:02;33.77;;;16.17;;
24635;SDS011;12772;49.794;10.024;2024-01-15T02:04:05;25.80;;;14.17;;
24635;SDS011;12772;49.794;10.024;2024-01-15T02:08:07;26.90;;;14.50;;
24635;SDS011;12772;49.794;10.024;2024-01-15T02:12:09;22.90;;;13.70;;
24635;SDS011;12772;49.794;10.024;2024-01-15T02:16:12;26.40;;;13.03;;
24635;SDS011;12772;49.794;10.024;2024-01-15T02:20:14;27.07;;;13.40;;
24635;SDS011;12772;49.794;10.024;2024-01-15T02:24:16;27.47;;;14.07;;
24635;SDS011;12772;49.794;10.024;2024-01-15T02:28:18;22.03;;;13.43;;
24635;SDS011;12772;49.794;10.024;2024-01-15T02:32:20;24.60;;;12.93;;
24635;SDS011;12772;49.794;10.024;2024-01-15T02:36:22;24.37;;;13.00;;
24635;SDS011;12772;49.794;10.024;2024-01-15T02:40:24;21.23;;;12.30;;
24635;SDS011;12772;49.794;10.024;2024-01-15T02:44:26;20.67;;;11.47;;
24635;SDS011;12772;49.794;10.024;2024-01-15T02:48:28;25.37;;;13.30;;
24635;SDS011;12772;49.794;10.024;2024-01-15T02:52:30;24.00;;;12.53;;
24635;SDS011;12772;49.794;10.024;2024-01-15T02:56:32;20.10;;;12.87;;
24635;SDS011;12772;49.794;10.024;2024-01-15T03:00:34;20.30;;;12.53;;
24635;SDS011;12772;49.794;10.024;2024-01-15T03:04:36;21.47;;;11.93;;
24635;SDS011;12772;49.794;10.024;2024-01-15T03:08:38;18.63;;;10.53;;
24635;SDS011;12772;49.794;10.024;2024-01-15T03:12:40;20.13;;;11.10;;
24635;SDS011;12772;49.794;10.024;2024-01-15T03:16:45;19.27;;;11.23;;
24635;SDS011;12772;49.794;10.024;2024-01-15T03:20:47;18.60;;;11.03;;
24635;SDS011;12772;49.794;10.024;2024-01-15T03:24:49;18.23;;;10.63;;
24635;SDS011;12772;49.794;10.024;2024-01-15T03:28:51;18.43;;;11.27;;
24635;SDS011;12772;49.794;10.024;2024-01-15T03:32:53;19.47;;;11.90;;
24635;SDS011;12772;49.794;10.024;2024-01-15T03:36:55;19.47;;;10.97;;
24635;SDS011;12772;49.794;10.024;2024-01-15T03:40:57;21.47;;;11.90;;
24635;SDS011;12772;49.794;10.024;2024-01-15T03:44:59;19.87;;;10.73;;
24635;SDS011;12772;49.794;10.024;2024-01-15T03:49:01;22.83;;;12.10;;
24635;SDS011;12772;49.794;10.024;2024-01-15T03:53:03;19.93;;;10.40;;
24635;SDS011;12772;49.794;10.024;2024-01-15T03:57:05;22.00;;;11.93;;
24635;SDS011;12772;49.794;10.024;2024-01-15T04:01:10;19.83;;;10.67;;
24635;SDS011;12772;49.794;10.024;2024-01-15T04:05:12;24.93;;;12.10;;
24635;SDS011;12772;49.794;10.024;2024-01-15T04:09:14;19.27;;;9.80;;
24635;SDS011;12772;49.794;10.024;2024-01-15T04:13:16;22.73;;;12.17;;
24635;SDS011;12772;49.794;10.024;2024-01-15T04:17:18;15.90;;;9.47;;
24635;SDS011;12772;49.794;10.024;2024-01-15T04:21:21;16.90;;;10.03;;
24635;SDS011;12772;49.794;10.024;2024-01-15T04:25:23;18.90;;;11.07;;
24635;SDS011;12772;49.794;10.024;2024-01-15T04:29:26;21.60;;;11.20;;
24635;SDS011;12772;49.794;10.024;2024-01-15T04:33:28;22.43;;;11.30;;
24635;SDS011;12772;49.794;10.024;2024-01-15T04:37:30;19.73;;;11.20;;
24635;SDS011;12772;49.794;10.024;2024-01-15T04:41:32;21.73;;;11.57;;
24635;SDS011;12772;49.794;10.024;2024-01-15T04:45:34;21.53;;;11.47;;
24635;SDS011;12772;49.794;10.024;2024-01-15T04:49:38;19.90;;;11.00;;
24635;SDS011;12772;49.794;10.024;2024-01-15T04:53:41;19.90;;;11.40;;
24635;SDS011;12772;49.794;10.024;2024-01-15T04:57:43;21.43;;;12.77;;
24635;SDS011;12772;49.794;10.024;2024-01-15T05:01:45;21.47;;;12.33;;
24635;SDS011;12772;49.794;10.024;2024-01-15T05:05:47;23.40;;;12.60;;
24635;SDS011;12772;49.794;10.024;2024-01-15T05:09:49;23.63;;;11.93;;
24635;SDS011;12772;49.794;10.024;2024-01-15T05:13:51;21.53;;;11.37;;
24635;SDS011;12772;49.794;10.024;2024-01-15T05:17:53;22.30;;;12.77;;
24635;SDS011;12772;49.794;10.024;2024-01-15T05:21:55;19.40;;;11.10;;
24635;SDS011;12772;49.794;10.024;2024-01-15T05:25:57;21.00;;;12.30;;
24635;SDS011;12772;49.794;10.024;2024-01-15T05:29:59;22.07;;;12.13;;
24635;SDS011;12772;49.794;10.024;2024-01-15T05:34:01;22.23;;;11.93;;
24635;SDS011;12772;49.794;10.024;2024-01-15T05:38:03;22.83;;;11.63;;
24635;SDS011;12772;49.794;10.024;2024-01-15T05:42:05;21.53;;;12.17;;
24635;SDS011;12772;49.794;10.024;2024-01-15T05:46:07;20.23;;;11.10;;
24635;SDS011;12772;49.794;10.024;2024-01-15T05:50:09;23.57;;;12.60;;
24635;SDS011;12772;49.794;10.024;2024-01-15T05:54:11;18.70;;;10.63;;
24635;SDS011;12772;49.794;10.024;2024-01-15T05:58:13;25.60;;;13.03;;
24635;SDS011;12772;49.794;10.024;2024-01-15T06:02:15;21.70;;;11.80;;
24635;SDS011;12772;49.794;10.024;2024-01-15T06:06:17;18.97;;;11.03;;
24635;SDS011;12772;49.794;10.024;2024-01-15T06:10:19;22.17;;;11.70;;
24635;SDS011;12772;49.794;10.024;2024-01-15T06:14:21;18.83;;;10.90;;
24635;SDS011;12772;49.794;10.024;2024-01-15T06:18:23;23.97;;;12.27;;
24635;SDS011;12772;49.794;10.024;2024-01-15T06:22:25;19.47;;;10.50;;
24635;SDS011;12772;49.794;10.024;2024-01-15T06:26:27;19.33;;;11.43;;
24635;SDS011;12772;49.794;10.024;2024-01-15T06:30:30;18.10;;;10.97;;
24635;SDS011;12772;49.794;10.024;2024-01-15T06:34:32;21.97;;;11.47;;
24635;SDS011;12772;49.794;10.024;2024-01-15T06:38:34;24.47;;;12.93;;
24635;SDS011;12772;49.794;10.024;2024-01-15T06:42:36;23.17;;;12.23;;
24635;SDS011;12772;49.794;10.024;2024-01-15T06:46:41;20.93;;;11.93;;
24635;SDS011;12772;49.794;10.024;2024-01-15T06:50:44;18.80;;;11.63;;
24635;SDS011;12772;49.794;10.024;2024-01-15T06:54:46;22.07;;;12.27;;
24635;SDS011;12772;49.794;10.024;2024-01-15T06:58:48;21.37;;;12.40;;
24635;SDS011;12772;49.794;10.024;2024-01-15T07:02:50;24.73;;;12.33;;
24635;SDS011;12772;49.794;10.024;2024-01-15T07:06:52;22.13;;;12.18;;
24635;SDS011;12772;49.794;10.024;2024-01-15T07:10:54;19.40;;;10.97;;
24635;SDS011;12772;49.794;10.024;2024-01-15T07:14:56;19.93;;;11.57;;
24635;SDS011;12772;49.794;10.024;2024-01-15T07:18:58;23.47;;;12.60;;
24635;SDS011;12772;49.794;10.024;2024-01-15T07:23:00;22.90;;;11.53;;
24635;SDS011;12772;49.794;10.024;2024-01-15T07:27:03;19.45;;;11.55;;
24635;SDS011;12772;49.794;10.024;2024-01-15T07:31:05;19.10;;;10.93;;
24635;SDS011;12772;49.794;10.024;2024-01-15T07:35:07;17.90;;;10.35;;
24635;SDS011;12772;49.794;10.024;2024-01-15T07:39:10;23.73;;;13.30;;
24635;SDS011;12772;49.794;10.024;2024-01-15T07:43:12;17.77;;;10.40;;
24635;SDS011;12772;49.794;10.024;2024-01-15T07:47:14;19.67;;;11.07;;
24635;SDS011;12772;49.794;10.024;2024-01-15T07:51:17;20.27;;;10.93;;
24635;SDS011;12772;49.794;10.024;2024-01-15T07:55:19;16.43;;;10.00;;
24635;SDS011;12772;49.794;10.024;2024-01-15T07:59:21;18.70;;;9.97;;
24635;SDS011;12772;49.794;10.024;2024-01-15T08:03:23;18.27;;;9.93;;
24635;SDS011;12772;49.794;10.024;2024-01-15T08:07:25;18.43;;;10.03;;
24635;SDS011;12772;49.794;10.024;2024-01-15T08:11:28;16.10;;;9.67;;
24635;SDS011;12772;49.794;10.024;2024-01-15T08:15:30;18.60;;;11.03;;
24635;SDS011;12772;49.794;10.024;2024-01-15T08:19:32;17.93;;;9.77;;
24635;SDS011;12772;49.794;10.024;2024-01-15T08:23:34;18.67;;;10.93;;
24635;SDS011;12772;49.794;10.024;2024-01-15T08:27:36;20.63;;;11.33;;
24635;SDS011;12772;49.794;10.024;2024-01-15T08:31:38;19.77;;;11.23;;
24635;SDS011;12772;49.794;10.024;2024-01-15T08:35:40;17.15;;;9.70;;
24635;SDS011;12772;49.794;10.024;2024-01-15T08:39:42;19.08;;;10.40;;
24635;SDS011;12772;49.794;10.024;2024-01-15T08:43:44;16.83;;;10.02;;
24635;SDS011;12772;49.794;10.024;2024-01-15T08:47:46;20.50;;;10.43;;
24635;SDS011;12772;49.794;10.024;2024-01-15T08:51:48;19.02;;;11.50;;
24635;SDS011;12772;49.794;10.024;2024-01-15T08:55:50;19.23;;;10.63;;
24635;SDS011;12772;49.794;10.024;2024-01-15T08:59:52;19.88;;;10.20;;
24635;SDS011;12772;49.794;10.024;2024-01-15T09:03:54;16.88;;;10.85;;
24635;SDS011;12772;49.794;10.024;2024-01-15T09:07:56;16.25;;;9.80;;
24635;SDS011;12772;49.794;10.024;2024-01-15T09:11:58;21.47;;;10.77;;
24635;SDS011;12772;49.794;10.024;2024-01-15T09:16:00;16.17;;;9.80;;
24635;SDS011;12772;49.794;10.024;2024-01-15T09:20:02;16.27;;;10.23;;
24635;SDS011;12772;49.794;10.024;2024-01-15T09:24:05;14.57;;;9.50;;
24635;SDS011;12772;49.794;10.024;2024-01-15T09:28:07;16.15;;;9.65;;
24635;SDS011;12772;49.794;10.024;2024-01-15T09:32:09;17.67;;;10.63;;
24635;SDS011;12772;49.794;10.024;2024-01-15T09:36:11;15.48;;;9.98;;
24635;SDS011;12772;49.794;10.024;2024-01-15T09:40:13;16.60;;;9.77;;
24635;SDS011;12772;49.794;10.024;2024-01-15T09:44:16;18.00;;;9.17;;
24635;SDS011;12772;49.794;10.024;2024-01-15T09:48:19;14.50;;;9.20;;
24635;SDS011;12772;49.794;10.024;2024-01-15T09:52:21;15.17;;;9.17;;
24635;SDS011;12772;49.794;10.024;2024-01-15T09:56:23;15.75;;;9.00;;
24635;SDS011;12772;49.794;10.024;2024-01-15T10:00:26;16.77;;;9.80;;
24635;SDS011;12772;49.794;10.024;2024-01-15T10:04:29;15.80;;;9.83;;
24635;SDS011;12772;49.794;10.024;2024-01-15T10:08:31;17.83;;;10.65;;
24635;SDS011;12772;49.794;10.024;2024-01-15T10:12:34;16.65;;;10.57;;
24635;SDS011;12772;49.794;10.024;2024-01-15T10:16:37;17.60;;;10.75;;
24635;SDS011;12772;49.794;10.024;2024-01-15T10:20:43;16.30;;;10.50;;
24635;SDS011;12772;49.794;10.024;2024-01-15T10:24:45;16.10;;;9.90;;
24635;SDS011;12772;49.794;10.024;2024-01-15T10:28:50;15.93;;;10.07;;
24635;SDS011;12772;49.794;10.024;2024-01-15T10:32:59;17.75;;;10.43;;
24635;SDS011;12772;49.794;10.024;2024-01-15T10:37:02;14.82;;;10.23;;
24635;SDS011;12772;49.794;10.024;2024-01-15T10:41:04;16.55;;;10.25;;
24635;SDS011;12772;49.794;10.024;2024-01-15T10:45:06;13.93;;;9.25;;
24635;SDS011;12772;49.794;10.024;2024-01-15T10:49:09;15.23;;;8.77;;
24635;SDS011;12772;49.794;10.024;2024-01-15T10:53:13;14.75;;;8.95;;
24635;SDS011;12772;49.794;10.024;2024-01-15T10:57:16;17.02;;;9.30;;
24635;SDS011;12772;49.794;10.024;2024-01-15T11:01:19;13.93;;;9.38;;
24635;SDS011;12772;49.794;10.024;2024-01-15T11:05:22;14.82;;;8.52;;
24635;SDS011;12772;49.794;10.024;2024-01-15T11:09:24;14.02;;;9.13;;
24635;SDS011;12772;49.794;10.024;2024-01-15T11:22:04;13.43;;;9.63;;
24635;SDS011;12772;49.794;10.024;2024-01-15T11:26:25;14.48;;;9.93;;
24635;SDS011;12772;49.794;10.024;2024-01-15T11:30:34;15.27;;;9.05;;
24635;SDS011;12772;49.794;10.024;2024-01-15T11:34:50;14.38;;;9.25;;
24635;SDS011;12772;49.794;10.024;2024-01-15T11:39:19;16.08;;;9.88;;
24635;SDS011;12772;49.794;10.024;2024-01-15T11:43:29;14.57;;;9.70;;
24635;SDS011;12772;49.794;10.024;2024-01-15T11:47:41;15.13;;;9.55;;
24635;SDS011;12772;49.794;10.024;2024-01-15T11:52:03;14.00;;;8.77;;
24635;SDS011;12772;49.794;10.024;2024-01-15T11:56:10;13.80;;;9.52;;
24635;SDS011;12772;49.794;10.024;2024-01-15T12:00:16;15.02;;;9.52;;
24635;SDS011;12772;49.794;10.024;2024-01-15T12:04:20;15.95;;;10.70;;
24635;SDS011;12772;49.794;10.024;2024-01-15T12:08:22;13.02;;;9.68;;
24635;SDS011;12772;49.794;10.024;2024-01-15T12:16:59;13.57;;;9.35;;
24635;SDS011;12772;49.794;10.024;2024-01-15T12:21:02;11.20;;;8.40;;
24635;SDS011;12772;49.794;10.024;2024-01-15T12:25:05;14.27;;;8.93;;
24635;SDS011;12772;49.794;10.024;2024-01-15T12:29:08;10.20;;;7.38;;
24635;SDS011;12772;49.794;10.024;2024-01-15T12:33:10;11.65;;;8.45;;
24635;SDS011;12772;49.794;10.024;2024-01-15T12:37:12;13.07;;;9.00;;
24635;SDS011;12772;49.794;10.024;2024-01-15T12:41:14;13.18;;;8.77;;
24635;SDS011;12772;49.794;10.024;2024-01-15T12:45:17;10.20;;;7.93;;
24635;SDS011;12772;49.794;10.024;2024-01-15T12:49:19;10.73;;;7.68;;
24635;SDS011;12772;49.794;10.024;2024-01-15T12:53:22;13.48;;;10.48;;
24635;SDS011;12772;49.794;10.024;2024-01-15T12:57:24;9.05;;;6.50;;
24635;SDS011;12772;49.794;10.024;2024-01-15T13:01:27;10.02;;;7.00;;
24635;SDS011;12772;49.794;10.024;2024-01-15T13:05:29;8.13;;;6.65;;
24635;SDS011;12772;49.794;10.024;2024-01-15T13:09:33;9.20;;;6.95;;
24635;SDS011;12772;49.794;10.024;2024-01-15T13:13:36;7.25;;;5.90;;
24635;SDS011;12772;49.794;10.024;2024-01-15T13:17:38;9.00;;;6.22;;
24635;SDS011;12772;49.794;10.024;2024-01-15T13:21:40;6.32;;;5.53;;
24635;SDS011;12772;49.794;10.024;2024-01-15T13:25:43;7.75;;;5.55;;
24635;SDS011;12772;49.794;10.024;2024-01-15T13:29:45;6.68;;;5.32;;
24635;SDS011;12772;49.794;10.024;2024-01-15T13:33:47;5.72;;;5.13;;
24635;SDS011;12772;49.794;10.024;2024-01-15T13:37:49;7.38;;;5.68;;
24635;SDS011;12772;49.794;10.024;2024-01-15T13:41:51;6.88;;;5.40;;
24635;SDS011;12772;49.794;10.024;2024-01-15T13:45:53;7.60;;;5.45;;
24635;SDS011;12772;49.794;10.024;2024-01-15T13:49:56;7.55;;;4.75;;
24635;SDS011;12772;49.794;10.024;2024-01-15T13:53:58;8.43;;;6.07;;
24635;SDS011;12772;49.794;10.024;2024-01-15T13:58:00;5.55;;;4.88;;
24635;SDS011;12772;49.794;10.024;2024-01-15T14:02:04;6.38;;;5.68;;
24635;SDS011;12772;49.794;10.024;2024-01-15T14:06:06;6.45;;;5.78;;
24635;SDS011;12772;49.794;10.024;2024-01-15T14:10:11;6.05;;;5.07;;
24635;SDS011;12772;49.794;10.024;2024-01-15T14:14:13;7.28;;;5.70;;
24635;SDS011;12772;49.794;10.024;2024-01-15T14:18:17;6.53;;;5.22;;
24635;SDS011;12772;49.794;10.024;2024-01-15T14:22:19;6.03;;;5.22;;
24635;SDS011;12772;49.794;10.024;2024-01-15T14:26:21;9.25;;;5.68;;
24635;SDS011;12772;49.794;10.024;2024-01-15T14:30:23;6.65;;;5.07;;
24635;SDS011;12772;49.794;10.024;2024-01-15T14:34:25;6.70;;;5.88;;
24635;SDS011;12772;49.794;10.024;2024-01-15T14:38:27;8.18;;;6.43;;
24635;SDS011;12772;49.794;10.024;2024-01-15T14:42:29;7.68;;;5.90;;
24635;SDS011;12772;49.794;10.024;2024-01-15T14:46:31;7.00;;;6.10;;
24635;SDS011;12772;49.794;10.024;2024-01-15T14:50:33;7.15;;;6.10;;
24635;SDS011;12772;49.794;10.024;2024-01-15T14:54:35;6.63;;;5.28;;
24635;SDS011;12772;49.794;10.024;2024-01-15T14:58:37;9.50;;;6.93;;
24635;SDS011;12772;49.794;10.024;2024-01-15T15:02:39;6.97;;;6.13;;
24635;SDS011;12772;49.794;10.024;2024-01-15T15:06:41;9.65;;;6.22;;
24635;SDS011;12772;49.794;10.024;2024-01-15T15:10:43;8.85;;;6.45;;
24635;SDS011;12772;49.794;10.024;2024-01-15T15:14:45;7.85;;;6.80;;
24635;SDS011;12772;49.794;10.024;2024-01-15T15:18:47;9.50;;;6.68;;
24635;SDS011;12772;49.794;10.024;2024-01-15T15:22:49;8.02;;;6.53;;
24635;SDS011;12772;49.794;10.024;2024-01-15T15:26:55;8.25;;;6.00;;
24635;SDS011;12772;49.794;10.024;2024-01-15T15:30:57;10.27;;;6.50;;
24635;SDS011;12772;49.794;10.024;2024-01-15T15:34:59;8.40;;;5.93;;
24635;SDS011;12772;49.794;10.024;2024-01-15T15:39:01;10.60;;;6.50;;
24635;SDS011;12772;49.794;10.024;2024-01-15T15:43:03;8.90;;;6.25;;
24635;SDS011;12772;49.794;10.024;2024-01-15T15:47:06;9.88;;;6.70;;
24635;SDS011;12772;49.794;10.024;2024-01-15T15:51:08;10.02;;;6.18;;
24635;SDS011;12772;49.794;10.024;2024-01-15T15:55:10;7.15;;;5.90;;
24635;SDS011;12772;49.794;10.024;2024-01-15T15:59:12;8.05;;;5.65;;
24635;SDS011;12772;49.794;10.024;2024-01-15T16:03:15;8.20;;;6.00;;
24635;SDS011;12772;49.794;10.024;2024-01-15T16:07:17;8.00;;;6.03;;
24635;SDS011;12772;49.794;10.024;2024-01-15T16:11:20;7.18;;;5.15;;
24635;SDS011;12772;49.794;10.024;2024-01-15T16:15:24;9.43;;;6.38;;
24635;SDS011;12772;49.794;10.024;2024-01-15T16:19:28;6.35;;;5.10;;
24635;SDS011;12772;49.794;10.024;2024-01-15T16:23:30;7.80;;;6.03;;
24635;SDS011;12772;49.794;10.024;2024-01-15T16:27:32;6.38;;;5.50;;
24635;SDS011;12772;49.794;10.024;2024-01-15T16:31:34;8.63;;;5.55;;
24635;SDS011;12772;49.794;10.024;2024-01-15T16:35:37;8.57;;;5.70;;
24635;SDS011;12772;49.794;10.024;2024-01-15T16:39:39;6.80;;;5.68;;
24635;SDS011;12772;49.794;10.024;2024-01-15T16:43:41;9.40;;;6.03;;
24635;SDS011;12772;49.794;10.024;2024-01-15T16:47:43;7.25;;;5.50;;
24635;SDS011;12772;49.794;10.024;2024-01-15T16:51:45;10.02;;;6.40;;
24635;SDS011;12772;49.794;10.024;2024-01-15T16:55:48;8.40;;;5.90;;
24635;SDS011;12772;49.794;10.024;2024-01-15T16:59:50;7.38;;;5.22;;
24635;SDS011;12772;49.794;10.024;2024-01-15T17:03:52;5.65;;;5.03;;
24635;SDS011;12772;49.794;10.024;2024-01-15T17:07:54;7.43;;;5.32;;
24635;SDS011;12772;49.794;10.024;2024-01-15T17:11:56;6.23;;;5.37;;
24635;SDS011;12772;49.794;10.024;2024-01-15T17:15:58;7.85;;;5.80;;
24635;SDS011;12772;49.794;10.024;2024-01-15T17:20:00;7.60;;;5.35;;
24635;SDS011;12772;49.794;10.024;2024-01-15T17:24:03;6.55;;;5.13;;
24635;SDS011;12772;49.794;10.024;2024-01-15T17:28:05;8.70;;;5.78;;
24635;SDS011;12772;49.794;10.024;2024-01-15T17:32:07;8.10;;;5.90;;
24635;SDS011;12772;49.794;10.024;2024-01-15T17:36:09;8.80;;;5.45;;
24635;SDS011;12772;49.794;10.024;2024-01-15T17:40:11;8.05;;;5.43;;
24635;SDS011;12772;49.794;10.024;2024-01-15T17:44:13;7.57;;;5.13;;
24635;SDS011;12772;49.794;10.024;2024-01-15T17:48:15;5.47;;;4.68;;
24635;SDS011;12772;49.794;10.024;2024-01-15T17:52:17;7.15;;;5.53;;
24635;SDS011;12772;49.794;10.024;2024-01-15T17:56:19;7.90;;;5.00;;
24635;SDS011;12772;49.794;10.024;2024-01-15T18:00:21;8.90;;;5.55;;
24635;SDS011;12772;49.794;10.024;2024-01-15T18:04:23;9.13;;;5.22;;
24635;SDS011;12772;49.794;10.024;2024-01-15T18:08:25;7.57;;;4.50;;
24635;SDS011;12772;49.794;10.024;2024-01-15T18:12:27;7.13;;;4.88;;
24635;SDS011;12772;49.794;10.024;2024-01-15T18:16:29;6.32;;;4.25;;
24635;SDS011;12772;49.794;10.024;2024-01-15T18:20:31;8.20;;;5.65;;
24635;SDS011;12772;49.794;10.024;2024-01-15T18:24:36;10.27;;;7.82;;
24635;SDS011;12772;49.794;10.024;2024-01-15T18:28:40;6.80;;;5.60;;
24635;SDS011;12772;49.794;10.024;2024-01-15T18:32:42;5.10;;;4.43;;
24635;SDS011;12772;49.794;10.024;2024-01-15T18:36:44;5.65;;;4.15;;
24635;SDS011;12772;49.794;10.024;2024-01-15T18:40:47;4.40;;;3.92;;
24635;SDS011;12772;49.794;10.024;2024-01-15T18:44:49;4.05;;;3.50;;
24635;SDS011;12772;49.794;10.024;2024-01-15T18:48:51;5.18;;;3.95;;
24635;SDS011;12772;49.794;10.024;2024-01-15T18:52:53;5.40;;;3.92;;
24635;SDS011;12772;49.794;10.024;2024-01-15T18:56:55;5.55;;;3.90;;
24635;SDS011;12772;49.794;10.024;2024-01-15T19:00:57;4.72;;;3.80;;
24635;SDS011;12772;49.794;10.024;2024-01-15T19:04:59;5.95;;;3.92;;
24635;SDS011;12772;49.794;10.024;2024-01-15T19:09:02;6.75;;;3.58;;
24635;SDS011;12772;49.794;10.024;2024-01-15T19:13:04;4.05;;;3.65;;
24635;SDS011;12772;49.794;10.024;2024-01-15T19:17:06;6.82;;;3.88;;
24635;SDS011;12772;49.794;10.024;2024-01-15T19:21:11;5.13;;;3.75;;
24635;SDS011;12772;49.794;10.024;2024-01-15T19:25:15;4.22;;;3.28;;
24635;SDS011;12772;49.794;10.024;2024-01-15T19:29:17;4.20;;;3.42;;
24635;SDS011;12772;49.794;10.024;2024-01-15T19:33:19;7.15;;;3.70;;
24635;SDS011;12772;49.794;10.024;2024-01-15T19:37:21;4.82;;;3.35;;
24635;SDS011;12772;49.794;10.024;2024-01-15T19:41:23;6.78;;;3.30;;
24635;SDS011;12772;49.794;10.024;2024-01-15T19:45:25;5.53;;;3.38;;
24635;SDS011;12772;49.794;10.024;2024-01-15T19:49:27;4.68;;;3.88;;
24635;SDS011;12772;49.794;10.024;2024-01-15T19:53:29;7.43;;;3.85;;
24635;SDS011;12772;49.794;10.024;2024-01-15T19:57:31;3.80;;;3.35;;
24635;SDS011;12772;49.794;10.024;2024-01-15T20:01:33;4.53;;;3.65;;
24635;SDS011;12772;49.794;10.024;2024-01-15T20:05:36;6.35;;;3.40;;
24635;SDS011;12772;49.794;10.024;2024-01-15T20:09:38;5.95;;;3.63;;
24635;SDS011;12772;49.794;10.024;2024-01-15T20:13:41;5.22;;;3.40;;
24635;SDS011;12772;49.794;10.024;2024-01-15T20:17:43;10.15;;;3.72;;
24635;SDS011;12772;49.794;10.024;2024-01-15T20:21:45;4.90;;;3.30;;
24635;SDS011;12772;49.794;10.024;2024-01-15T20:25:47;4.70;;;3.10;;
24635;SDS011;12772;49.794;10.024;2024-01-15T20:29:49;8.48;;;3.55;;
24635;SDS011;12772;49.794;10.024;2024-01-15T20:33:52;4.43;;;3.30;;
24635;SDS011;12772;49.794;10.024;2024-01-15T20:37:54;4.45;;;2.85;;
24635;SDS011;12772;49.794;10.024;2024-01-15T20:41:57;6.15;;;3.35;;
24635;SDS011;12772;49.794;10.024;2024-01-15T20:46:00;3.75;;;2.78;;
24635;SDS011;12772;49.794;10.024;2024-01-15T20:50:02;3.28;;;2.97;;
24635;SDS011;12772;49.794;10.024;2024-01-15T20:54:07;5.40;;;3.13;;
24635;SDS011;12772;49.794;10.024;2024-01-15T20:58:09;5.20;;;3.38;;
24635;SDS011;12772;49.794;10.024;2024-01-15T21:02:12;6.30;;;3.50;;
24635;SDS011;12772;49.794;10.024;2024-01-15T21:06:14;4.80;;;3.28;;
24635;SDS011;12772;49.794;10.024;2024-01-15T21:10:16;5.82;;;3.38;;
24635;SDS011;12772;49.794;10.024;2024-01-15T21:14:19;5.55;;;3.40;;
24635;SDS011;12772;49.794;10.024;2024-01-15T21:18:21;5.32;;;3.15;;
24635;SDS011;12772;49.794;10.024;2024-01-15T21:22:24;3.85;;;2.60;;
24635;SDS011;12772;49.794;10.024;2024-01-15T21:26:29;4.32;;;3.15;;
24635;SDS011;12772;49.794;10.024;2024-01-15T21:30:31;4.32;;;3.13;;
24635;SDS011;12772;49.794;10.024;2024-01-15T21:34:35;3.42;;;3.03;;
24635;SDS011;12772;49.794;10.024;2024-01-15T21:38:37;4.75;;;4.15;;
24635;SDS011;12772;49.794;10.024;2024-01-15T21:42:39;3.17;;;2.88;;
24635;SDS011;12772;49.794;10.024;2024-01-15T21:46:41;5.30;;;2.90;;
24635;SDS011;12772;49.794;10.024;2024-01-15T21:50:44;5.53;;;3.30;;
24635;SDS011;12772;49.794;10.024;2024-01-15T21:54:45;4.47;;;3.15;;
24635;SDS011;12772;49.794;10.024;2024-01-15T21:58:48;5.03;;;2.50;;
24635;SDS011;12772;49.794;10.024;2024-01-15T22:02:50;3.78;;;2.58;;
24635;SDS011;12772;49.794;10.024;2024-01-15T22:06:52;4.03;;;3.08;;
24635;SDS011;12772;49.794;10.024;2024-01-15T22:10:54;8.68;;;2.97;;
24635;SDS011;12772;49.794;10.024;2024-01-15T22:14:56;4.13;;;2.53;;
24635;SDS011;12772;49.794;10.024;2024-01-15T22:18:58;5.60;;;3.05;;
24635;SDS011;12772;49.794;10.024;2024-01-15T22:23:00;3.75;;;3.22;;
24635;SDS011;12772;49.794;10.024;2024-01-15T22:27:02;4.53;;;3.10;;
24635;SDS011;12772;49.794;10.024;2024-01-15T22:31:05;3.10;;;2.42;;
24635;SDS011;12772;49.794;10.024;2024-01-15T22:35:07;4.18;;;2.67;;
24635;SDS011;12772;49.794;10.024;2024-01-15T22:39:10;9.95;;;5.18;;
24635;SDS011;12772;49.794;10.024;2024-01-15T22:43:14;5.32;;;3.33;;
24635;SDS011;12772;49.794;10.024;2024-01-15T22:47:15;4.00;;;2.95;;
24635;SDS011;12772;49.794;10.024;2024-01-15T22:51:18;4.43;;;2.80;;
24635;SDS011;12772;49.794;10.024;2024-01-15T22:55:20;4.78;;;3.22;;
24635;SDS011;12772;49.794;10.024;2024-01-15T22:59:22;3.85;;;2.75;;
24635;SDS011;12772;49.794;10.024;2024-01-15T23:03:24;4.57;;;3.08;;
24635;SDS011;12772;49.794;10.024;2024-01-15T23:07:26;4.07;;;2.90;;
24635;SDS011;12772;49.794;10.024;2024-01-15T23:11:28;3.47;;;3.17;;
24635;SDS011;12772;49.794;10.024;2024-01-15T23:15:30;3.25;;;2.80;;
24635;SDS011;12772;49.794;10.024;2024-01-15T23:19:32;6.40;;;3.42;;
24635;SDS011;12772;49.794;10.024;2024-01-15T23:23:34;5.10;;;3.50;;
24635;SDS011;12772;49.794;10.024;2024-01-15T23:27:36;5.18;;;3.25;;
24635;SDS011;12772;49.794;10.024;2024-01-15T23:31:41;8.80;;;3.83;;
24635;SDS011;12772;49.794;10.024;2024-01-15T23:35:43;4.72;;;3.00;;
24635;SDS011;12772;49.794;10.024;2024-01-15T23:39:46;3.88;;;3.13;;
24635;SDS011;12772;49.794;10.024;2024-01-15T23:43:48;4.72;;;2.95;;
24635;SDS011;12772;49.794;10.024;2024-01-15T23:47:50;5.78;;;2.97;;
24635;SDS011;12772;49.794;10.024;2024-01-15T23:51:52;6.40;;;3.35;;